Time;durP1;ratioP1;P1;durP2;ratioP2;P2;SDS_P1;SDS_P2;PMS_P1;PMS_P2;Temp;Humidity;BMP_temperature;BMP_pressure;BME280_temperature;BME280_humidity;BME280_pressure;Samples;Min_cycle;Max_cycle;Signal;HPM_P1;HPM_P2
2022/10/02 00:02:01;;;;;;;0.00;0.00;;;;;;;13.74;94.32;99025.38;4959115;28;20229;-51
2022/10/02 00:04:33;;;;;;;0.00;0.00;;;;;;;13.73;95.40;99034.22;4959392;28;20244;-51
2022/10/02 00:07:06;;;;;;;0.00;0.00;;;;;;;13.77;93.93;99037.38;4959895;28;20763;-51
2022/10/02 00:09:38;;;;;;;0.00;0.00;;;;;;;13.85;93.30;99046.06;4962341;28;20240;-51
2022/10/02 00:12:07;;;;;;;0.00;0.00;;;;;;;13.84;93.56;99028.69;4957499;28;20364;-51
2022/10/02 00:14:40;;;;;;;0.00;0.00;;;;;;;13.86;92.80;99004.88;4963396;28;20234;-53
2022/10/02 00:17:11;;;;;;;0.00;0.00;;;;;;;13.86;93.55;99025.88;4940441;28;20296;-52
2022/10/02 00:19:37;;;;;;;0.00;0.00;;;;;;;13.88;92.99;99037.88;4962217;28;20286;-51
2022/10/02 00:22:31;;;;;;;0.00;0.00;;;;;;;13.90;93.30;99037.69;4960305;28;20307;-51
2022/10/02 00:25:08;;;;;;;0.00;0.00;;;;;;;13.92;92.29;99042.78;4953088;28;20238;-51
2022/10/02 00:27:49;;;;;;;0.00;0.00;;;;;;;13.95;92.28;99051.16;4959615;28;20591;-51
2022/10/02 00:30:17;;;;;;;0.00;0.00;;;;;;;13.96;91.43;99062.50;4961329;28;20287;-52
2022/10/02 00:32:58;;;;;;;0.00;0.00;;;;;;;14.05;90.97;99061.50;4961943;28;20238;-51
2022/10/02 00:35:55;;;;;;;0.00;0.00;;;;;;;14.07;90.43;99077.09;4957189;28;20249;-51
2022/10/02 00:38:36;;;;;;;0.00;0.00;;;;;;;14.09;89.47;99059.38;4957230;28;20627;-51
2022/10/02 00:41:21;;;;;;;0.00;0.00;;;;;;;14.09;89.96;99081.22;4961732;28;20221;-51
2022/10/02 00:44:00;;;;;;;0.00;0.00;;;;;;;14.13;89.27;99073.81;4957589;28;20233;-51
2022/10/02 00:46:45;;;;;;;0.00;0.00;;;;;;;14.14;89.36;99078.09;4962067;28;20728;-51
2022/10/02 00:49:27;;;;;;;0.00;0.00;;;;;;;14.29;86.78;99075.66;4958103;28;20297;-50
2022/10/02 00:52:05;;;;;;;0.00;0.00;;;;;;;14.27;87.38;99075.78;4958348;28;20776;-51
2022/10/02 00:55:03;;;;;;;0.00;0.00;;;;;;;14.31;86.97;99071.84;4960721;28;20295;-51
2022/10/02 00:57:42;;;;;;;0.00;0.00;;;;;;;14.28;86.78;99080.06;4937355;28;20239;-52
2022/10/02 01:00:13;;;;;;;0.00;0.00;;;;;;;14.25;87.31;99088.25;4939757;28;20305;-52
2022/10/02 01:03:10;;;;;;;0.00;0.00;;;;;;;14.40;86.23;99074.50;4940121;28;20234;-52
2022/10/02 01:05:37;;;;;;;0.00;0.00;;;;;;;14.46;84.75;99097.47;4942499;28;20242;-51
2022/10/02 01:08:04;;;;;;;0.00;0.00;;;;;;;14.47;84.94;99105.16;4936972;28;20780;-53
2022/10/02 01:10:34;;;;;;;0.00;0.00;;;;;;;14.44;85.23;99086.31;4941166;28;20247;-51
2022/10/02 01:13:00;;;;;;;0.00;0.00;;;;;;;14.39;85.25;99072.84;4940873;28;20286;-51
2022/10/02 01:15:33;;;;;;;0.00;0.00;;;;;;;14.43;84.81;99071.53;4943501;28;20663;-51
2022/10/02 01:18:01;;;;;;;0.00;0.00;;;;;;;14.41;85.02;99063.00;4939059;28;20317;-52
2022/10/02 01:20:34;;;;;;;0.00;0.00;;;;;;;14.41;85.27;99061.19;4941491;28;20244;-53
2022/10/02 01:23:09;;;;;;;0.00;0.00;;;;;;;14.45;84.92;99057.22;4938855;28;20245;-51
2022/10/02 01:25:37;;;;;;;0.00;0.00;;;;;;;14.38;89.27;99058.06;4979339;23;20318;-63
2022/10/02 01:28:05;;;;;;;0.00;0.00;;;;;;;14.21;90.52;99063.31;4995865;28;21139;-63
2022/10/02 01:30:35;;;;;;;0.00;0.00;;;;;;;14.13;92.12;99063.31;4996141;28;20221;-62
2022/10/02 01:33:03;;;;;;;0.00;0.00;;;;;;;14.04;92.40;99065.13;4979952;28;20236;-62
2022/10/02 01:35:32;;;;;;;0.00;0.00;;;;;;;14.04;91.97;99065.13;4982962;28;20295;-62
2022/10/02 01:38:01;;;;;;;0.00;0.00;;;;;;;13.97;92.83;99079.88;4980376;28;20260;-62
2022/10/02 01:40:30;;;;;;;0.00;0.00;;;;;;;13.99;92.18;99062.97;4983047;28;20247;-62
2022/10/02 01:43:01;;;;;;;0.00;0.00;;;;;;;13.97;92.54;99045.75;4980078;28;20233;-62
2022/10/02 01:45:43;;;;;;;0.00;0.00;;;;;;;14.02;90.48;99046.09;4982932;28;20229;-61
2022/10/02 01:48:16;;;;;;;0.00;0.00;;;;;;;13.99;92.32;99056.91;4979442;28;20338;-62
2022/10/02 01:50:53;;;;;;;0.00;0.00;;;;;;;14.00;91.52;99062.00;4983178;28;20368;-62
2022/10/02 01:53:28;;;;;;;0.00;0.00;;;;;;;13.99;90.75;99064.78;4980011;28;20231;-62
2022/10/02 01:56:06;;;;;;;0.00;0.00;;;;;;;14.13;88.69;99065.94;4979070;28;20318;-62
2022/10/02 01:58:45;;;;;;;0.00;0.00;;;;;;;14.14;89.98;99070.22;4984025;28;21108;-62
2022/10/02 02:01:22;;;;;;;0.00;0.00;;;;;;;14.10;90.35;99066.25;4981471;28;20314;-62
2022/10/02 02:03:57;;;;;;;0.00;0.00;;;;;;;14.13;89.63;99053.66;4979755;28;20599;-62
2022/10/02 02:06:29;;;;;;;0.00;0.00;;;;;;;14.12;89.28;99069.53;4983045;28;20236;-62
2022/10/02 02:09:03;;;;;;;0.00;0.00;;;;;;;14.11;89.13;99065.28;4979822;28;20728;-62
2022/10/02 02:11:31;;;;;;;0.00;0.00;;;;;;;14.14;89.26;99057.09;4982030;28;20237;-62
2022/10/02 02:14:05;;;;;;;0.00;0.00;;;;;;;14.20;88.76;99032.00;4956635;28;20236;-62
2022/10/02 02:16:38;;;;;;;0.00;0.00;;;;;;;14.17;88.11;99027.88;4981515;28;20397;-63
2022/10/02 02:19:15;;;;;;;0.00;0.00;;;;;;;14.13;88.52;99042.31;4968525;28;20237;-63
2022/10/02 02:21:45;;;;;;;0.00;0.00;;;;;;;14.12;87.85;99052.00;4981239;28;20379;-63
2022/10/02 02:24:17;;;;;;;0.00;0.00;;;;;;;14.16;88.33;99055.13;4980460;28;20628;-63
2022/10/02 02:26:46;;;;;;;0.00;0.00;;;;;;;14.24;85.83;99056.94;4982578;28;20240;-63
2022/10/02 02:29:19;;;;;;;0.00;0.00;;;;;;;14.26;86.94;99050.53;4979092;28;20320;-63
2022/10/02 02:31:48;;;;;;;0.00;0.00;;;;;;;14.22;86.82;99059.72;4978455;28;20291;-63
2022/10/02 02:34:19;;;;;;;0.00;0.00;;;;;;;14.24;86.49;99067.44;4981601;28;20251;-63
2022/10/02 02:36:52;;;;;;;0.00;0.00;;;;;;;14.25;86.29;99058.56;4979334;28;20292;-63
2022/10/02 02:39:25;;;;;;;0.00;0.00;;;;;;;14.23;86.29;99066.59;4981642;28;20327;-62
2022/10/02 02:41:58;;;;;;;0.00;0.00;;;;;;;14.24;86.24;99057.75;4977797;28;20720;-62
2022/10/02 02:44:29;;;;;;;0.00;0.00;;;;;;;14.22;86.33;99062.34;4981427;28;20707;-62
2022/10/02 02:47:05;;;;;;;0.00;0.00;;;;;;;14.28;85.47;99061.69;4977303;28;20225;-60
2022/10/02 02:49:38;;;;;;;0.00;0.00;;;;;;;14.32;83.26;99055.13;4979990;28;20237;-60
2022/10/02 02:52:10;;;;;;;0.00;0.00;;;;;;;14.29;84.54;99062.53;4977312;28;20678;-60
2022/10/02 02:54:43;;;;;;;0.00;0.00;;;;;;;14.28;84.15;99053.00;4981394;28;20241;-60
2022/10/02 02:57:11;;;;;;;0.00;0.00;;;;;;;14.23;84.72;99061.34;4979172;28;20287;-60
2022/10/02 02:59:44;;;;;;;0.00;0.00;;;;;;;14.19;84.88;99051.34;4981247;28;20251;-60
2022/10/02 03:02:10;;;;;;;0.00;0.00;;;;;;;14.16;84.04;99045.44;4979437;28;20768;-60
2022/10/02 03:04:37;;;;;;;0.00;0.00;;;;;;;14.14;84.53;99052.66;4984045;28;20307;-60
2022/10/02 03:07:05;;;;;;;0.00;0.00;;;;;;;14.11;84.73;99049.53;4983644;28;20934;-60
2022/10/02 03:09:33;;;;;;;0.00;0.00;;;;;;;14.14;83.80;99049.19;4987025;28;20291;-60
2022/10/02 03:12:15;;;;;;;0.00;0.00;;;;;;;14.17;82.79;99051.50;4982190;28;20335;-60
2022/10/02 03:15:03;;;;;;;0.00;0.00;;;;;;;14.16;83.65;99053.31;4985840;28;20284;-60
2022/10/02 03:17:47;;;;;;;0.00;0.00;;;;;;;14.17;82.70;99059.38;4985615;28;20236;-60
2022/10/02 03:20:21;;;;;;;0.00;0.00;;;;;;;14.25;81.06;99059.38;4984185;28;20589;-60
2022/10/02 03:22:59;;;;;;;0.00;0.00;;;;;;;14.25;81.50;99069.09;4983189;28;20241;-60
2022/10/02 03:25:33;;;;;;;0.00;0.00;;;;;;;14.26;82.28;99055.78;4990527;28;20298;-60
2022/10/02 03:28:04;;;;;;;0.00;0.00;;;;;;;14.22;82.51;99057.09;4985399;28;20243;-60
2022/10/02 03:30:33;;;;;;;0.00;0.00;;;;;;;14.33;80.89;99066.44;4987763;28;20233;-60
2022/10/02 03:33:02;;;;;;;0.00;0.00;;;;;;;14.38;80.53;99071.19;4982601;28;20268;-62
2022/10/02 03:35:30;;;;;;;0.00;0.00;;;;;;;14.30;81.22;99057.09;4985020;28;20221;-62
2022/10/02 03:38:00;;;;;;;0.00;0.00;;;;;;;14.28;81.26;99055.63;4984827;28;20238;-62
2022/10/02 03:40:27;;;;;;;0.00;0.00;;;;;;;14.29;81.56;99057.25;4967611;28;20248;-62
2022/10/02 03:42:57;;;;;;;0.00;0.00;;;;;;;14.28;81.00;99061.69;4986426;28;20252;-62
2022/10/02 03:45:23;;;;;;;0.00;0.00;;;;;;;14.38;79.77;99050.19;4985860;28;20256;-62
2022/10/02 03:47:54;;;;;;;0.00;0.00;;;;;;;14.40;79.05;99050.84;4984199;28;20288;-62
2022/10/02 03:50:21;;;;;;;0.00;0.00;;;;;;;14.35;80.98;99047.91;4984628;28;20318;-61
2022/10/02 03:52:50;;;;;;;0.00;0.00;;;;;;;14.31;81.23;99053.47;4982143;28;20759;-61
2022/10/02 03:55:31;;;;;;;0.00;0.00;;;;;;;14.36;80.39;99047.72;4985162;28;20238;-62
2022/10/02 03:57:58;;;;;;;0.00;0.00;;;;;;;14.35;80.75;99047.91;4982417;28;20243;-62
2022/10/02 04:00:32;;;;;;;0.00;0.00;;;;;;;14.39;80.38;99064.97;4986518;28;20233;-62
2022/10/02 04:03:03;;;;;;;0.00;0.00;;;;;;;14.41;81.12;99036.72;4982622;28;20721;-62
2022/10/02 04:05:38;;;;;;;0.00;0.00;;;;;;;14.37;81.58;99040.69;4986709;28;20731;-62
2022/10/02 04:08:11;;;;;;;0.00;0.00;;;;;;;14.33;82.76;99042.78;4968578;28;20979;-62
2022/10/02 04:10:47;;;;;;;0.00;0.00;;;;;;;14.39;80.92;99038.69;4986160;28;20965;-62
2022/10/02 04:13:21;;;;;;;0.00;0.00;;;;;;;14.38;81.34;99044.94;4984551;28;20276;-62
2022/10/02 04:15:58;;;;;;;0.00;0.00;;;;;;;14.38;82.56;99047.56;4981959;28;20697;-62
2022/10/02 04:18:31;;;;;;;0.00;0.00;;;;;;;14.29;83.78;99044.13;4984750;28;20231;-63
2022/10/02 04:21:03;;;;;;;0.00;0.00;;;;;;;14.20;85.95;99048.56;4981384;28;20238;-63
2022/10/02 04:23:33;;;;;;;0.00;0.00;;;;;;;14.18;83.03;99037.41;4986173;28;20241;-63
2022/10/02 04:26:04;;;;;;;0.00;0.00;;;;;;;14.12;87.38;99038.88;4983964;28;20632;-63
2022/10/02 04:28:38;;;;;;;0.00;0.00;;;;;;;14.11;87.27;99052.16;4984755;28;20698;-63
2022/10/02 04:31:10;;;;;;;0.00;0.00;;;;;;;14.02;88.47;99049.53;4981865;28;20238;-63
2022/10/02 04:33:39;;;;;;;0.00;0.00;;;;;;;13.99;88.44;99062.97;4987630;28;20229;-63
2022/10/02 04:36:16;;;;;;;0.00;0.00;;;;;;;13.96;87.97;99060.66;4982126;28;22840;-63
2022/10/02 04:39:09;;;;;;;0.00;0.00;;;;;;;14.11;86.04;99047.75;4986055;28;20244;-63
2022/10/02 04:42:01;;;;;;;0.00;0.00;;;;;;;14.08;87.60;99049.84;4982402;28;20229;-63
2022/10/02 04:44:43;;;;;;;0.00;0.00;;;;;;;14.02;89.13;99054.78;4983820;28;20283;-60
2022/10/02 04:47:31;;;;;;;0.00;0.00;;;;;;;13.99;90.61;99047.22;4983719;28;20233;-61
2022/10/02 04:50:16;;;;;;;0.00;0.00;;;;;;;13.92;93.03;99040.97;4981899;28;20279;-61
2022/10/02 04:53:10;;;;;;;0.00;0.00;;;;;;;13.87;91.78;99041.47;4983863;28;20235;-61
2022/10/02 04:55:50;;;;;;;0.00;0.00;;;;;;;13.76;93.97;99048.84;4986796;28;20225;-61
2022/10/02 04:58:45;;;;;;;0.00;0.00;;;;;;;13.71;95.97;99058.03;4983108;28;20693;-61
2022/10/02 05:01:22;;;;;;;0.00;0.00;;;;;;;13.66;95.14;99057.69;4984065;28;20742;-61
2022/10/02 05:04:09;;;;;;;0.00;0.00;;;;;;;13.67;95.78;99050.63;4963169;28;20267;-61
2022/10/02 05:06:52;;;;;;;0.00;0.00;;;;;;;13.54;98.37;99056.34;4988880;28;20282;-61
2022/10/02 05:09:28;;;;;;;0.00;0.00;;;;;;;13.54;99.00;99051.88;4986299;28;20284;-61
2022/10/02 05:12:14;;;;;;;0.00;0.00;;;;;;;13.38;100.00;99050.00;4984811;28;20233;-61
2022/10/02 05:15:02;;;;;;;0.00;0.00;;;;;;;13.36;100.00;99044.09;4990883;28;20244;-61
2022/10/02 05:17:48;;;;;;;0.00;0.00;;;;;;;13.37;100.00;99035.25;4985603;28;20715;-62
2022/10/02 05:20:34;;;;;;;0.00;0.00;;;;;;;13.34;100.00;99032.13;4971437;28;20549;-61
2022/10/02 05:23:21;;;;;;;0.00;0.00;;;;;;;13.26;100.00;99025.88;4985742;28;20251;-61
2022/10/02 05:26:03;;;;;;;0.00;0.00;;;;;;;13.26;100.00;99027.69;4986012;28;20632;-61
2022/10/02 05:29:02;;;;;;;0.00;0.00;;;;;;;13.23;100.00;99026.22;4989481;28;20884;-61
2022/10/02 05:31:41;;;;;;;0.00;0.00;;;;;;;13.21;100.00;99022.09;4976925;28;20291;-61
2022/10/02 05:34:25;;;;;;;0.00;0.00;;;;;;;13.16;100.00;99025.19;4985138;28;20236;-61
2022/10/02 05:37:22;;;;;;;0.00;0.00;;;;;;;13.17;100.00;99020.75;4985650;28;20271;-61
2022/10/02 05:39:57;;;;;;;0.00;0.00;;;;;;;13.13;100.00;99015.03;4990398;28;20244;-61
2022/10/02 05:42:31;;;;;;;0.00;0.00;;;;;;;13.06;100.00;99014.81;4987760;28;20248;-61
2022/10/02 05:45:02;;;;;;;0.00;0.00;;;;;;;13.06;100.00;99016.63;4985848;28;20239;-61
2022/10/02 05:47:31;;;;;;;0.00;0.00;;;;;;;13.04;100.00;99008.91;4987024;28;20719;-61
2022/10/02 05:50:03;;;;;;;0.00;0.00;;;;;;;13.04;100.00;99024.63;4984871;28;20232;-61
2022/10/02 05:52:37;;;;;;;0.00;0.00;;;;;;;13.03;100.00;99014.34;4989524;28;20270;-61
2022/10/02 05:55:16;;;;;;;0.00;0.00;;;;;;;13.05;100.00;99004.50;4986225;28;20228;-61
2022/10/02 05:57:48;;;;;;;0.00;0.00;;;;;;;12.94;100.00;98997.72;4987795;28;20608;-61
2022/10/02 06:00:25;;;;;;;0.00;0.00;;;;;;;12.91;100.00;98991.03;4985362;28;20899;-61
2022/10/02 06:03:00;;;;;;;0.00;0.00;;;;;;;12.88;100.00;98986.09;4989213;28;20239;-61
2022/10/02 06:05:36;;;;;;;0.00;0.00;;;;;;;12.89;100.00;98989.53;4987749;28;20759;-61
2022/10/02 06:08:06;;;;;;;0.00;0.00;;;;;;;12.90;100.00;98993.78;4983381;28;20236;-61
2022/10/02 06:10:43;;;;;;;0.00;0.00;;;;;;;12.90;100.00;98994.63;4988133;28;20236;-61
2022/10/02 06:13:15;;;;;;;0.00;0.00;;;;;;;12.93;100.00;98996.94;4984191;28;20240;-61
2022/10/02 06:15:49;;;;;;;0.00;0.00;;;;;;;12.95;100.00;98994.97;4987575;28;20801;-61
2022/10/02 06:18:19;;;;;;;0.00;0.00;;;;;;;12.91;100.00;98992.81;4986705;28;20237;-61
2022/10/02 06:20:51;;;;;;;0.00;0.00;;;;;;;12.90;100.00;98988.53;4984313;28;20237;-61
2022/10/02 06:23:22;;;;;;;0.00;0.00;;;;;;;12.89;100.00;98984.28;4987380;28;20707;-61
2022/10/02 06:25:53;;;;;;;0.00;0.00;;;;;;;12.90;100.00;98978.91;4984286;28;20302;-61
2022/10/02 06:28:27;;;;;;;0.00;0.00;;;;;;;12.92;100.00;98963.84;4987844;28;20265;-61
2022/10/02 06:30:58;;;;;;;0.00;0.00;;;;;;;13.03;100.00;98975.81;4984357;28;20239;-61
2022/10/02 06:33:28;;;;;;;0.00;0.00;;;;;;;12.94;100.00;98972.38;4988218;28;20245;-61
2022/10/02 06:36:29;;;;;;;0.00;0.00;;;;;;;12.92;100.00;98974.31;4985322;28;20232;-61
2022/10/02 06:39:24;;;;;;;0.00;0.00;;;;;;;12.89;100.00;98977.25;4988714;28;20229;-61
2022/10/02 06:42:03;;;;;;;0.00;0.00;;;;;;;12.91;100.00;98979.72;4966862;28;20284;-61
2022/10/02 06:44:38;;;;;;;0.00;0.00;;;;;;;12.89;100.00;98965.94;4986898;28;20563;-61
2022/10/02 06:47:18;;;;;;;0.00;0.00;;;;;;;12.89;100.00;98966.78;4982762;28;20291;-61
2022/10/02 06:50:04;;;;;;;0.00;0.00;;;;;;;12.92;100.00;98968.25;4989766;28;20236;-61
2022/10/02 06:52:39;;;;;;;0.00;0.00;;;;;;;12.94;100.00;98971.53;4987208;28;20704;-61
2022/10/02 06:55:35;;;;;;;0.00;0.00;;;;;;;12.96;100.00;98953.84;4984900;28;20819;-61
2022/10/02 06:58:22;;;;;;;0.00;0.00;;;;;;;13.00;100.00;98960.41;4984091;28;20249;-61
2022/10/02 07:00:56;;;;;;;0.00;0.00;;;;;;;13.03;100.00;98954.88;4957212;28;20244;-61
2022/10/02 07:04:04;;;;;;;0.00;0.00;;;;;;;13.05;100.00;98944.25;4986928;28;20237;-61
2022/10/02 07:06:47;;;;;;;0.00;0.00;;;;;;;13.12;100.00;98953.91;4952803;28;20243;-61
2022/10/02 07:09:55;;;;;;;0.00;0.00;;;;;;;13.07;100.00;98950.94;4966112;28;20285;-61
2022/10/02 07:12:39;;;;;;;0.00;0.00;;;;;;;13.10;100.00;98966.34;4983572;28;20264;-61
2022/10/02 07:15:28;;;;;;;0.00;0.00;;;;;;;13.07;100.00;98990.25;4986010;28;20234;-61
2022/10/02 07:18:03;;;;;;;0.00;0.00;;;;;;;13.09;100.00;98990.13;4983919;28;20265;-61
2022/10/02 07:20:38;;;;;;;0.00;0.00;;;;;;;13.17;100.00;98977.03;4988958;28;20295;-61
2022/10/02 07:23:18;;;;;;;0.00;0.00;;;;;;;13.22;100.00;98969.53;4985814;28;20644;-61
2022/10/02 07:26:07;;;;;;;0.00;0.00;;;;;;;13.27;100.00;98961.97;4984929;28;20239;-61
2022/10/02 07:28:41;;;;;;;0.00;0.00;;;;;;;13.32;100.00;98981.66;4985267;28;20287;-61
2022/10/02 07:31:20;;;;;;;0.00;0.00;;;;;;;13.26;100.00;98981.31;4984221;28;20236;-61
2022/10/02 07:34:12;;;;;;;0.00;0.00;;;;;;;13.25;100.00;98979.66;4983726;28;20240;-61
2022/10/02 07:36:49;;;;;;;0.00;0.00;;;;;;;13.22;100.00;98973.94;4985842;28;20323;-61
2022/10/02 07:39:36;;;;;;;0.00;0.00;;;;;;;13.26;100.00;98999.66;4983635;28;20771;-61
2022/10/02 07:42:18;;;;;;;0.00;0.00;;;;;;;13.21;100.00;99025.56;4983419;28;20241;-61
2022/10/02 07:45:21;;;;;;;0.00;0.00;;;;;;;13.20;100.00;99033.56;4986755;28;20224;-61
2022/10/02 07:48:11;;;;;;;0.00;0.00;;;;;;;13.32;100.00;99005.25;4980188;28;20294;-61
2022/10/02 07:50:50;;;;;;;0.00;0.00;;;;;;;13.43;100.00;98986.63;4986627;28;20224;-61
2022/10/02 07:53:25;;;;;;;0.00;0.00;;;;;;;13.56;100.00;98978.31;4983577;28;20236;-61
2022/10/02 07:55:54;;;;;;;0.00;0.00;;;;;;;13.78;100.00;98982.09;4983065;28;20249;-61
2022/10/02 07:58:31;;;;;;;0.00;0.00;;;;;;;13.89;100.00;98973.06;4986016;28;20267;-61
2022/10/02 08:01:01;;;;;;;0.00;0.00;;;;;;;14.09;100.00;98962.25;4982758;28;20224;-61
2022/10/02 08:03:34;;;;;;;0.00;0.00;;;;;;;14.31;100.00;98956.31;4986904;28;20733;-61
2022/10/02 08:06:03;;;;;;;0.00;0.00;;;;;;;14.49;100.00;98963.19;4988658;28;20232;-61
2022/10/02 08:08:38;;;;;;;0.00;0.00;;;;;;;14.55;100.00;98962.50;4988264;28;20261;-61
2022/10/02 08:11:10;;;;;;;0.00;0.00;;;;;;;14.59;100.00;98966.44;4982691;28;20316;-61
2022/10/02 08:13:42;;;;;;;0.00;0.00;;;;;;;14.70;100.00;98970.53;4985626;28;20245;-61
2022/10/02 08:16:09;;;;;;;0.00;0.00;;;;;;;14.74;100.00;98984.97;4983514;28;20245;-61
2022/10/02 08:18:41;;;;;;;0.00;0.00;;;;;;;14.77;100.00;98996.97;4987149;28;20290;-61
2022/10/02 08:21:13;;;;;;;0.00;0.00;;;;;;;14.53;100.00;98984.66;4982538;28;20237;-61
2022/10/02 08:23:46;;;;;;;0.00;0.00;;;;;;;14.58;100.00;98980.56;4985559;28;20331;-61
2022/10/02 08:26:19;;;;;;;0.00;0.00;;;;;;;14.61;100.00;98997.78;4983706;28;20236;-61
2022/10/02 08:28:51;;;;;;;0.00;0.00;;;;;;;14.73;100.00;99001.72;4984127;28;20233;-61
2022/10/02 08:31:17;;;;;;;0.00;0.00;;;;;;;14.86;100.00;98992.50;4984349;28;20583;-61
2022/10/02 08:33:45;;;;;;;0.00;0.00;;;;;;;15.07;100.00;98988.47;4985424;28;20735;-61
2022/10/02 08:36:39;;;;;;;0.00;0.00;;;;;;;15.11;100.00;98985.31;4982815;28;20307;-61
2022/10/02 08:39:20;;;;;;;0.00;0.00;;;;;;;15.15;100.00;98989.25;4981567;28;21703;-61
2022/10/02 08:42:10;;;;;;;0.00;0.00;;;;;;;15.14;100.00;98992.06;4982271;28;20638;-61
2022/10/02 08:45:06;;;;;;;0.00;0.00;;;;;;;15.27;100.00;98999.38;4986992;28;20969;-61
2022/10/02 08:48:25;;;;;;;0.00;0.00;;;;;;;15.31;100.00;98991.00;4982839;28;20226;-61
2022/10/02 08:51:20;;;;;;;0.00;0.00;;;;;;;15.50;100.00;98989.72;4914388;28;20234;-61
2022/10/02 08:54:22;;;;;;;0.00;0.00;;;;;;;15.58;100.00;98994.09;4914404;28;20779;-61
2022/10/02 08:57:01;;;;;;;0.00;0.00;;;;;;;15.63;100.00;98977.81;4984022;28;20269;-61
2022/10/02 08:59:59;;;;;;;0.00;0.00;;;;;;;15.70;100.00;98980.56;4986041;28;20712;-61
2022/10/02 09:03:09;;;;;;;0.00;0.00;;;;;;;15.85;100.00;98996.41;4983745;28;20248;-61
2022/10/02 09:06:01;;;;;;;0.00;0.00;;;;;;;15.74;100.00;99003.72;4983965;28;20286;-61
2022/10/02 09:09:14;;;;;;;0.00;0.00;;;;;;;15.72;100.00;99000.44;4983309;28;20627;-61
2022/10/02 09:12:28;;;;;;;0.00;0.00;;;;;;;15.83;100.00;98988.69;4982591;28;20241;-61
2022/10/02 09:14:59;;;;;;;0.00;0.00;;;;;;;15.77;100.00;98986.75;4979218;28;20231;-61
2022/10/02 09:17:45;;;;;;;0.00;0.00;;;;;;;16.01;100.00;98982.34;4954596;28;20320;-61
2022/10/02 09:20:36;;;;;;;0.00;0.00;;;;;;;16.15;100.00;98983.34;4982539;28;20288;-61
2022/10/02 09:23:48;;;;;;;0.00;0.00;;;;;;;16.32;100.00;98997.22;4982002;28;20226;-61
2022/10/02 09:26:24;;;;;;;0.00;0.00;;;;;;;16.46;96.56;98991.13;4982361;28;20222;-61
2022/10/02 09:29:28;;;;;;;0.00;0.00;;;;;;;16.44;94.56;98982.59;4982701;28;20332;-61
2022/10/02 09:32:56;;;;;;;0.00;0.00;;;;;;;16.80;97.41;98989.78;4981093;28;20242;-61
2022/10/02 09:35:46;;;;;;;0.00;0.00;;;;;;;17.47;92.65;98970.53;4982341;28;20233;-61
2022/10/02 09:38:32;;;;;;;0.00;0.00;;;;;;;17.80;89.90;98977.94;4982114;28;20288;-61
2022/10/02 09:41:35;;;;;;;0.00;0.00;;;;;;;17.95;85.38;98969.94;4983816;28;20226;-61
2022/10/02 09:44:33;;;;;;;0.00;0.00;;;;;;;18.20;86.03;98969.53;4983526;28;20287;-61
2022/10/02 09:47:36;;;;;;;0.00;0.00;;;;;;;18.46;84.89;98968.09;4984035;28;20609;-61
2022/10/02 09:50:48;;;;;;;0.00;0.00;;;;;;;18.84;82.04;98970.34;4982100;28;20286;-61
2022/10/02 09:53:46;;;;;;;0.00;0.00;;;;;;;18.38;84.09;98988.38;4985808;28;20255;-61
2022/10/02 09:57:01;;;;;;;0.00;0.00;;;;;;;17.59;87.96;98979.56;4984116;28;20225;-61
2022/10/02 09:59:47;;;;;;;0.00;0.00;;;;;;;17.48;87.47;98986.16;4986144;28;20235;-61
2022/10/02 10:02:35;;;;;;;0.00;0.00;;;;;;;17.16;89.03;98971.59;4986576;28;20235;-61
2022/10/02 10:05:34;;;;;;;0.00;0.00;;;;;;;17.14;88.14;98971.75;4985425;28;20238;-60
2022/10/02 10:08:31;;;;;;;0.00;0.00;;;;;;;17.09;89.88;98964.41;4985396;28;20232;-61
2022/10/02 10:11:12;;;;;;;0.00;0.00;;;;;;;17.10;90.12;98947.59;4989274;28;20304;-61
2022/10/02 10:14:06;;;;;;;0.00;0.00;;;;;;;17.03;90.88;98965.16;4988206;28;20240;-61
2022/10/02 10:17:12;;;;;;;0.00;0.00;;;;;;;16.98;91.11;98951.72;4990525;28;20235;-61
2022/10/02 10:20:35;;;;;;;0.00;0.00;;;;;;;16.76;93.65;98970.06;4986419;28;20235;-61
2022/10/02 10:23:30;;;;;;;0.00;0.00;;;;;;;16.93;90.70;98968.06;4982111;28;20657;-61
2022/10/02 10:26:15;;;;;;;0.00;0.00;;;;;;;16.82;92.08;98955.34;4985388;28;20707;-61
2022/10/02 10:29:18;;;;;;;0.00;0.00;;;;;;;17.03;91.48;98957.25;4989138;28;20234;-61
2022/10/02 10:32:23;;;;;;;0.00;0.00;;;;;;;17.24;89.01;98959.09;4968255;28;20700;-61
2022/10/02 10:35:19;;;;;;;0.00;0.00;;;;;;;17.26;88.03;98956.28;4981950;28;20642;-61
2022/10/02 10:40:59;;;;;;;0.00;0.00;;;;;;;17.07;89.86;98962.94;4987838;28;20233;-61
2022/10/02 10:43:56;;;;;;;0.00;0.00;;;;;;;17.07;89.89;98947.97;4984531;28;20231;-61
2022/10/02 10:46:44;;;;;;;0.00;0.00;;;;;;;17.09;91.24;98953.03;4983313;28;20239;-61
2022/10/02 10:49:36;;;;;;;0.00;0.00;;;;;;;17.06;92.45;98954.25;4984745;28;20290;-61
2022/10/02 10:52:15;;;;;;;0.00;0.00;;;;;;;17.07;93.28;98945.31;4985729;28;20226;-61
2022/10/02 10:55:06;;;;;;;0.00;0.00;;;;;;;17.05;91.03;98935.94;4987607;28;20603;-61
2022/10/02 10:57:43;;;;;;;0.00;0.00;;;;;;;17.14;91.70;98934.03;4985177;28;20231;-61
2022/10/02 11:00:20;;;;;;;0.00;0.00;;;;;;;16.96;94.36;98930.78;4983886;28;20240;-61
2022/10/02 11:03:20;;;;;;;0.00;0.00;;;;;;;16.94;94.95;98943.34;4983073;28;20240;-61
2022/10/02 11:06:11;;;;;;;0.00;0.00;;;;;;;16.76;95.85;98961.34;4984877;28;20242;-61
2022/10/02 11:08:57;;;;;;;0.00;0.00;;;;;;;16.54;98.82;98961.25;4987943;28;20223;-62
2022/10/02 11:11:30;;;;;;;0.00;0.00;;;;;;;16.55;98.54;98952.34;4984615;28;20243;-62
2022/10/02 11:14:19;;;;;;;0.00;0.00;;;;;;;16.49;99.72;98945.97;4983082;28;20239;-62
2022/10/02 11:17:10;;;;;;;0.00;0.00;;;;;;;16.42;100.00;98949.53;4986703;28;20324;-62
2022/10/02 11:19:51;;;;;;;0.00;0.00;;;;;;;16.26;100.00;98950.50;4982786;28;20230;-62
2022/10/02 11:22:47;;;;;;;0.00;0.00;;;;;;;16.28;100.00;98938.00;4984747;28;20299;-62
2022/10/02 11:25:33;;;;;;;0.00;0.00;;;;;;;16.25;100.00;98944.41;4985871;28;20237;-62
2022/10/02 11:28:28;;;;;;;0.00;0.00;;;;;;;16.26;100.00;98951.31;4982691;28;20229;-62
2022/10/02 11:31:19;;;;;;;0.00;0.00;;;;;;;16.09;100.00;98942.78;4959980;28;20237;-62
2022/10/02 11:34:11;;;;;;;0.00;0.00;;;;;;;16.03;100.00;98920.59;4983267;28;20563;-62
2022/10/02 11:36:55;;;;;;;0.00;0.00;;;;;;;16.15;100.00;98917.53;4972551;28;20268;-62
2022/10/02 11:39:43;;;;;;;0.00;0.00;;;;;;;16.12;100.00;98926.59;4984743;28;20287;-62
2022/10/02 11:42:36;;;;;;;0.00;0.00;;;;;;;16.10;100.00;98936.50;4984013;28;20276;-62
2022/10/02 11:45:19;;;;;;;0.00;0.00;;;;;;;16.01;100.00;98933.09;4956774;28;20233;-62
2022/10/02 11:48:10;;;;;;;0.00;0.00;;;;;;;16.01;100.00;98935.75;4985920;28;20244;-62
2022/10/02 11:51:22;;;;;;;0.00;0.00;;;;;;;16.01;100.00;98934.94;4985600;28;20230;-62
2022/10/02 11:54:03;;;;;;;0.00;0.00;;;;;;;16.03;100.00;98925.06;4938234;28;20748;-62
2022/10/02 11:56:45;;;;;;;0.00;0.00;;;;;;;16.07;100.00;98921.06;4989442;28;20646;-62
2022/10/02 11:59:41;;;;;;;0.00;0.00;;;;;;;16.16;100.00;98916.53;4982902;28;20241;-62
2022/10/02 12:02:14;;;;;;;0.00;0.00;;;;;;;16.25;100.00;98909.38;4982912;28;20241;-62
2022/10/02 12:04:53;;;;;;;0.00;0.00;;;;;;;16.14;100.00;98921.16;4977279;28;20253;-62
2022/10/02 12:07:37;;;;;;;0.00;0.00;;;;;;;15.74;100.00;98956.34;4974606;28;20232;-62
2022/10/02 12:10:23;;;;;;;0.00;0.00;;;;;;;15.19;100.00;98972.16;4982805;28;20694;-62
2022/10/02 12:13:02;;;;;;;0.00;0.00;;;;;;;14.89;100.00;98961.41;4984377;28;20237;-62
2022/10/02 12:15:39;;;;;;;0.00;0.00;;;;;;;14.78;100.00;98951.31;4985562;28;20340;-62
2022/10/02 12:18:38;;;;;;;0.00;0.00;;;;;;;14.68;100.00;98969.84;4984075;28;20240;-62
2022/10/02 12:27:10;;;;;;;0.00;0.00;;;;;;;14.90;100.00;98955.19;4982905;28;20236;-63
2022/10/02 12:29:47;;;;;;;0.00;0.00;;;;;;;14.91;100.00;98975.22;4986547;28;20302;-63
2022/10/02 12:32:26;;;;;;;0.00;0.00;;;;;;;14.72;100.00;98986.16;4978913;28;20247;-63
2022/10/02 12:35:05;;;;;;;0.00;0.00;;;;;;;14.66;100.00;98992.03;4985514;28;20228;-63
2022/10/02 12:37:40;;;;;;;0.00;0.00;;;;;;;14.69;100.00;98989.06;4986989;28;20312;-63
2022/10/02 12:40:18;;;;;;;0.00;0.00;;;;;;;14.84;100.00;98986.59;4982523;28;20277;-63
2022/10/02 12:43:19;;;;;;;0.00;0.00;;;;;;;15.29;100.00;98992.16;4985717;28;20961;-63